Time;durP1;ratioP1;P1;durP2;ratioP2;P2;SDS_P1;SDS_P2;PMS_P1;PMS_P2;Temp;Humidity;BMP_temperature;BMP_pressure;BME280_temperature;BME280_humidity;BME280_pressure;Samples;Min_cycle;Max_cycle;Signal;HPM_P1;HPM_P2
2023/04/07 00:00:38;;;;;;;10.13;9.83;;;3.10;99.90;;;;;;5066413;28;20235;-83
2023/04/07 00:03:17;;;;;;;9.90;9.60;;;3.00;99.90;;;;;;5065791;28;20222;-84
2023/04/07 00:05:46;;;;;;;9.80;9.50;;;2.90;99.90;;;;;;5064536;28;20306;-84
2023/04/07 00:08:15;;;;;;;10.20;9.90;;;2.80;99.90;;;;;;5065050;28;20269;-85
2023/04/07 00:10:44;;;;;;;10.00;9.70;;;2.70;99.90;;;;;;5065147;28;20227;-83
2023/04/07 00:13:15;;;;;;;10.00;9.70;;;2.70;99.90;;;;;;5064603;28;20226;-83
2023/04/07 00:15:43;;;;;;;10.10;9.80;;;2.70;99.90;;;;;;5063498;28;20235;-83
2023/04/07 00:21:00;;;;;;;9.87;9.57;;;2.70;99.90;;;;;;5063437;28;20719;-84
2023/04/07 00:23:30;;;;;;;10.17;9.87;;;2.70;99.90;;;;;;5063858;28;20265;-83
2023/04/07 00:25:59;;;;;;;10.10;9.80;;;2.60;99.90;;;;;;5071100;28;20239;-83
2023/04/07 00:28:29;;;;;;;10.20;9.90;;;2.60;99.90;;;;;;5069838;28;20373;-83
2023/04/07 00:30:57;;;;;;;10.23;9.93;;;2.60;99.90;;;;;;5068177;28;20266;-83
2023/04/07 00:36:14;;;;;;;10.43;10.13;;;2.50;99.90;;;;;;5066383;28;20251;-84
2023/04/07 00:38:43;;;;;;;10.50;10.20;;;2.40;99.90;;;;;;5065542;28;20308;-84
2023/04/07 00:41:13;;;;;;;10.40;10.10;;;2.40;99.90;;;;;;5066306;28;20239;-84
2023/04/07 00:43:42;;;;;;;10.30;10.00;;;2.40;99.90;;;;;;5069526;28;20227;-83
2023/04/07 00:46:12;;;;;;;9.93;9.63;;;2.40;99.90;;;;;;5066631;28;20302;-83
2023/04/07 00:48:44;;;;;;;10.40;10.10;;;2.30;99.90;;;;;;5065516;28;20231;-83
2023/04/07 00:51:12;;;;;;;10.47;10.17;;;2.10;99.90;;;;;;5065918;28;20258;-83
2023/04/07 00:53:40;;;;;;;10.40;10.10;;;1.90;99.90;;;;;;5064514;28;20258;-83
2023/04/07 00:56:09;;;;;;;10.30;10.00;;;1.90;99.90;;;;;;5064601;28;20249;-84
2023/04/07 00:58:39;;;;;;;10.50;10.20;;;1.90;99.90;;;;;;5064427;28;20230;-84
2023/04/07 01:01:18;;;;;;;10.07;9.77;;;1.90;99.90;;;;;;5064399;28;20329;-83
2023/04/07 01:03:55;;;;;;;10.23;9.93;;;1.90;99.90;;;;;;5063401;28;20234;-84
2023/04/07 01:06:33;;;;;;;10.40;10.10;;;2.00;99.90;;;;;;5063925;28;20256;-83
2023/04/07 01:09:06;;;;;;;10.60;10.30;;;2.10;99.90;;;;;;5063980;28;20233;-84
2023/04/07 01:11:42;;;;;;;10.50;10.20;;;2.20;99.90;;;;;;5064088;28;20266;-83
2023/04/07 01:14:11;;;;;;;10.20;9.90;;;2.20;99.90;;;;;;5063581;28;20317;-84
2023/04/07 01:16:49;;;;;;;10.23;9.93;;;2.20;99.90;;;;;;5063879;28;20321;-83
2023/04/07 01:19:38;;;;;;;10.23;9.93;;;2.30;99.90;;;;;;5068417;28;20234;-83
2023/04/07 01:22:16;;;;;;;10.23;9.93;;;2.30;99.90;;;;;;5062379;28;20281;-83
2023/04/07 01:25:11;;;;;;;10.13;9.83;;;2.30;99.90;;;;;;5062068;28;20241;-83
2023/04/07 01:27:48;;;;;;;10.00;9.70;;;2.20;99.90;;;;;;5061266;28;20237;-83
2023/04/07 01:30:26;;;;;;;10.30;10.00;;;2.20;99.90;;;;;;5063806;28;20246;-83
2023/04/07 01:32:56;;;;;;;10.40;10.10;;;2.20;99.90;;;;;;5063307;28;20241;-83
2023/04/07 01:35:26;;;;;;;10.40;10.10;;;2.20;99.90;;;;;;5063867;28;20298;-83
2023/04/07 01:37:56;;;;;;;10.20;9.90;;;2.20;99.90;;;;;;5063145;28;20245;-84
2023/04/07 01:40:25;;;;;;;10.07;9.77;;;2.20;99.90;;;;;;5073256;28;20238;-83
2023/04/07 01:42:54;;;;;;;10.20;9.90;;;2.20;99.90;;;;;;5075471;28;20239;-83
2023/04/07 01:45:33;;;;;;;10.20;9.90;;;2.20;99.90;;;;;;5071562;28;20290;-83
2023/04/07 01:48:02;;;;;;;10.30;10.00;;;2.20;99.90;;;;;;5069551;28;20321;-83
2023/04/07 01:50:31;;;;;;;10.60;10.30;;;2.20;99.90;;;;;;5068454;28;20250;-83
2023/04/07 01:53:00;;;;;;;10.50;10.20;;;2.20;99.90;;;;;;5067496;28;20243;-83
2023/04/07 01:55:31;;;;;;;10.40;10.10;;;2.20;99.90;;;;;;5065651;28;20290;-84
2023/04/07 01:58:01;;;;;;;10.40;10.10;;;2.20;99.90;;;;;;5065882;28;20747;-83
2023/04/07 02:00:33;;;;;;;10.00;9.70;;;2.20;99.90;;;;;;5065061;28;20318;-84
2023/04/07 02:03:10;;;;;;;10.40;10.10;;;2.10;99.90;;;;;;5064379;28;20235;-83
2023/04/07 02:05:40;;;;;;;10.30;10.00;;;2.10;99.90;;;;;;5064312;28;20245;-84
2023/04/07 02:08:10;;;;;;;10.20;9.90;;;2.00;99.90;;;;;;5064243;28;20231;-84
2023/04/07 02:10:39;;;;;;;10.10;9.80;;;2.10;99.90;;;;;;5063666;28;20291;-83
2023/04/07 02:13:09;;;;;;;10.10;9.80;;;2.10;99.90;;;;;;5064381;28;20249;-84
2023/04/07 02:15:44;;;;;;;9.97;9.67;;;2.10;99.90;;;;;;5064011;28;20234;-84
2023/04/07 02:18:15;;;;;;;10.03;9.73;;;2.10;99.90;;;;;;5064177;28;20223;-83
2023/04/07 02:20:44;;;;;;;10.10;9.80;;;2.20;99.90;;;;;;5063683;28;20235;-83
2023/04/07 02:23:13;;;;;;;10.00;9.70;;;2.30;99.90;;;;;;5062694;28;20294;-83
2023/04/07 02:25:42;;;;;;;10.20;9.90;;;2.30;99.90;;;;;;5062746;28;20238;-84
2023/04/07 02:28:13;;;;;;;9.90;9.60;;;2.30;99.90;;;;;;5063076;28;20321;-83
2023/04/07 02:30:44;;;;;;;10.10;9.80;;;2.40;99.90;;;;;;5065532;28;20223;-83
2023/04/07 02:33:12;;;;;;;10.20;9.90;;;2.40;99.90;;;;;;5063874;28;20306;-83
2023/04/07 02:35:41;;;;;;;10.20;9.90;;;2.50;99.90;;;;;;5063107;28;20231;-83
2023/04/07 02:38:09;;;;;;;10.20;9.90;;;2.50;99.90;;;;;;5064000;28;20225;-83
2023/04/07 02:40:39;;;;;;;10.20;9.90;;;2.50;99.90;;;;;;5065890;28;20281;-84
2023/04/07 02:43:08;;;;;;;10.10;9.80;;;2.50;99.90;;;;;;5065646;28;20281;-83
2023/04/07 02:45:39;;;;;;;10.17;9.87;;;2.50;99.90;;;;;;5065593;28;20253;-84
2023/04/07 02:48:10;;;;;;;10.20;9.90;;;2.50;99.90;;;;;;5065136;28;20227;-83
2023/04/07 02:50:37;;;;;;;10.17;9.87;;;2.30;99.90;;;;;;5066312;28;20261;-83
2023/04/07 02:53:06;;;;;;;10.20;9.90;;;2.30;99.90;;;;;;5065811;28;20238;-83
2023/04/07 02:55:36;;;;;;;10.20;9.90;;;2.30;99.90;;;;;;5072202;28;20290;-83
2023/04/07 02:58:05;;;;;;;10.33;10.03;;;2.20;99.90;;;;;;5071898;28;20327;-83
2023/04/07 03:00:35;;;;;;;10.40;10.10;;;2.20;99.90;;;;;;5068840;28;20296;-83
2023/04/07 03:03:04;;;;;;;10.30;10.00;;;2.20;99.90;;;;;;5067192;28;20318;-83
2023/04/07 03:05:36;;;;;;;10.40;10.10;;;2.20;99.90;;;;;;5077409;28;21119;-83
2023/04/07 03:08:04;;;;;;;10.40;10.10;;;2.20;99.90;;;;;;5066019;28;20235;-83
2023/04/07 03:10:32;;;;;;;10.03;9.73;;;2.20;99.90;;;;;;5063668;28;20223;-83
2023/04/07 03:13:02;;;;;;;10.20;9.90;;;2.20;99.90;;;;;;5070704;28;20258;-83
2023/04/07 03:15:32;;;;;;;10.27;9.97;;;2.20;99.90;;;;;;5071566;28;20235;-84
2023/04/07 03:18:02;;;;;;;10.40;10.10;;;2.20;99.90;;;;;;5069713;28;20287;-83
2023/04/07 03:20:31;;;;;;;10.30;10.00;;;2.20;99.90;;;;;;5069015;28;21126;-83
2023/04/07 03:23:02;;;;;;;10.20;9.90;;;2.30;99.90;;;;;;5067964;28;20548;-83
2023/04/07 03:25:30;;;;;;;10.37;10.07;;;2.40;99.90;;;;;;5067167;28;20243;-82
2023/04/07 03:27:58;;;;;;;10.30;10.00;;;2.40;99.90;;;;;;5066158;28;20225;-83
2023/04/07 03:30:28;;;;;;;10.30;10.00;;;2.40;99.90;;;;;;5066752;28;20235;-83
2023/04/07 03:32:58;;;;;;;10.40;10.10;;;2.50;99.90;;;;;;5066520;28;20298;-83
2023/04/07 03:35:27;;;;;;;10.17;9.87;;;2.50;99.90;;;;;;5065933;28;20239;-83
2023/04/07 03:37:56;;;;;;;10.23;9.93;;;2.50;99.90;;;;;;5066530;28;20305;-83
2023/04/07 03:40:28;;;;;;;10.20;9.90;;;2.50;99.90;;;;;;5067775;28;20237;-84
2023/04/07 03:42:55;;;;;;;9.87;9.57;;;2.50;99.90;;;;;;5066226;28;20303;-83
2023/04/07 03:45:25;;;;;;;10.03;9.73;;;2.40;99.90;;;;;;5065818;28;20246;-83
2023/04/07 03:47:55;;;;;;;10.10;9.80;;;2.50;99.90;;;;;;5064571;28;20229;-83
2023/04/07 03:50:23;;;;;;;10.40;10.10;;;2.50;99.90;;;;;;5065346;28;20303;-83
2023/04/07 03:52:53;;;;;;;10.50;10.20;;;2.50;99.90;;;;;;5065266;28;20278;-84
2023/04/07 03:55:25;;;;;;;10.33;10.03;;;2.50;99.90;;;;;;5076419;28;20239;-83
2023/04/07 03:57:56;;;;;;;10.10;9.80;;;2.50;99.90;;;;;;5076562;28;20227;-84
2023/04/07 04:00:24;;;;;;;10.50;10.20;;;2.50;99.90;;;;;;5071034;28;20235;-83
2023/04/07 04:02:53;;;;;;;10.00;9.70;;;2.60;99.90;;;;;;5069132;28;20234;-83
2023/04/07 04:05:23;;;;;;;10.30;10.00;;;2.60;99.90;;;;;;5067780;28;20326;-83
2023/04/07 04:07:51;;;;;;;10.00;9.70;;;2.60;99.90;;;;;;5067202;28;20313;-83
2023/04/07 04:10:21;;;;;;;10.40;10.10;;;2.70;99.90;;;;;;5066668;28;20270;-83
2023/04/07 04:12:50;;;;;;;10.20;9.90;;;2.60;99.90;;;;;;5065936;28;20300;-83
2023/04/07 04:15:22;;;;;;;10.27;9.97;;;2.60;99.90;;;;;;5065557;28;20242;-83
2023/04/07 04:17:49;;;;;;;10.20;9.90;;;2.60;99.90;;;;;;5069262;28;20211;-84
2023/04/07 04:20:20;;;;;;;10.20;9.90;;;2.60;99.90;;;;;;5068599;28;20306;-83
2023/04/07 04:22:48;;;;;;;10.20;9.90;;;2.50;99.90;;;;;;5066230;28;20231;-84
2023/04/07 04:25:18;;;;;;;10.40;10.10;;;2.50;99.90;;;;;;5065114;28;20233;-83
2023/04/07 04:27:47;;;;;;;10.60;10.30;;;2.50;99.90;;;;;;5065411;28;20223;-83
2023/04/07 04:30:16;;;;;;;10.70;10.40;;;2.50;99.90;;;;;;5064903;28;20321;-83
2023/04/07 04:32:48;;;;;;;10.67;10.37;;;2.40;99.90;;;;;;5064735;28;20265;-83
2023/04/07 04:35:16;;;;;;;10.80;10.50;;;2.50;99.90;;;;;;5064188;28;20289;-83
2023/04/07 04:37:45;;;;;;;10.70;10.40;;;2.50;99.90;;;;;;5063841;28;20237;-83
2023/04/07 04:40:14;;;;;;;10.60;10.30;;;2.50;99.90;;;;;;5063925;28;20231;-83
2023/04/07 04:42:43;;;;;;;10.60;10.30;;;2.60;99.90;;;;;;5063681;28;20227;-83
2023/04/07 04:45:13;;;;;;;10.60;10.30;;;2.60;99.90;;;;;;5063680;28;20237;-84
2023/04/07 05:37:34;;;;;;;10.17;9.87;;;3.00;99.90;;;;;;5037608;28;20223;-85
2023/04/07 05:44:01;;;;;;;10.13;9.83;;;3.30;99.90;;;;;;5060011;28;20249;-85
2023/04/07 06:46:10;;;;;;;9.60;9.30;;;5.30;99.90;;;;;;4901475;29;21065;-85
2023/04/07 08:47:04;;;;;;;10.20;9.90;;;10.20;99.90;;;;;;5001161;28;20279;-85
2023/04/07 09:12:50;;;;;;;9.93;9.63;;;11.50;99.90;;;;;;5081705;28;20312;-85
2023/04/07 09:29:07;;;;;;;9.93;9.63;;;12.00;99.90;;;;;;5075333;28;20226;-85
2023/04/07 09:40:06;;;;;;;10.03;9.73;;;12.00;99.90;;;;;;5015194;28;20228;-85
2023/04/07 09:55:22;;;;;;;10.00;9.70;;;12.50;99.90;;;;;;5086161;28;20239;-85
2023/04/07 09:59:01;;;;;;;10.00;9.70;;;12.70;99.90;;;;;;5086122;28;20268;-85
2023/04/07 10:05:47;;;;;;;9.73;9.43;;;13.30;99.90;;;;;;5078026;28;20225;-86
2023/04/07 10:08:51;;;;;;;9.90;9.60;;;13.70;99.90;;;;;;4998913;28;20260;-85
2023/04/07 10:22:53;;;;;;;9.57;9.27;;;14.20;99.90;;;;;;5017556;28;20261;-85
2023/04/07 10:47:06;;;;;;;9.70;9.40;;;15.80;99.90;;;;;;4898378;22;20328;-81
2023/04/07 10:49:34;;;;;;;9.90;9.60;;;16.30;99.90;;;;;;5086711;28;20256;-82
2023/04/07 10:52:29;;;;;;;10.00;9.70;;;16.50;99.90;;;;;;5086252;28;20226;-82
2023/04/07 10:55:35;;;;;;;10.00;9.70;;;16.50;99.90;;;;;;5085403;28;20234;-81
2023/04/07 10:58:29;;;;;;;10.23;9.93;;;16.50;99.90;;;;;;5086218;28;20226;-81
2023/04/07 11:01:33;;;;;;;10.15;9.85;;;16.30;99.90;;;;;;5091067;28;20233;-81
2023/04/07 11:04:12;;;;;;;10.30;10.00;;;16.10;99.90;;;;;;5090829;28;20233;-81
2023/04/07 11:06:49;;;;;;;10.05;9.75;;;16.40;99.90;;;;;;5090156;28;20237;-82
2023/04/07 11:09:20;;;;;;;10.20;9.90;;;16.00;99.90;;;;;;5089666;28;20222;-82
2023/04/07 11:11:50;;;;;;;10.40;10.10;;;15.80;99.90;;;;;;5090572;28;20234;-82
2023/04/07 11:14:27;;;;;;;10.20;9.90;;;15.70;99.90;;;;;;5090378;28;20238;-82
2023/04/07 11:16:56;;;;;;;9.95;9.65;;;15.70;99.90;;;;;;5090238;28;20289;-83
2023/04/07 11:19:27;;;;;;;9.82;9.52;;;15.50;99.90;;;;;;5088882;28;20241;-83
2023/04/07 11:22:21;;;;;;;9.90;9.60;;;15.40;99.90;;;;;;5089976;28;20282;-82
2023/04/07 11:24:51;;;;;;;10.10;9.80;;;15.20;99.90;;;;;;5089927;28;20233;-82
2023/04/07 11:27:20;;;;;;;9.95;9.65;;;15.10;99.90;;;;;;5090979;28;20268;-82
2023/04/07 11:29:50;;;;;;;10.27;9.98;;;15.10;99.90;;;;;;5089976;28;20296;-82
2023/04/07 11:32:29;;;;;;;10.03;9.73;;;14.90;99.90;;;;;;5089242;28;20226;-82
2023/04/07 11:35:07;;;;;;;10.20;9.90;;;14.80;99.90;;;;;;5089707;28;20299;-82
2023/04/07 11:37:36;;;;;;;10.30;10.00;;;15.10;99.90;;;;;;5088798;28;20240;-82
2023/04/07 11:40:05;;;;;;;10.17;9.87;;;14.80;99.90;;;;;;5088011;28;20307;-82
2023/04/07 11:42:34;;;;;;;10.17;9.87;;;14.80;99.90;;;;;;5086388;28;20234;-82
2023/04/07 11:45:04;;;;;;;10.13;9.82;;;14.90;99.90;;;;;;5088856;28;20254;-82
2023/04/07 11:47:35;;;;;;;10.18;9.88;;;15.10;99.90;;;;;;5090575;28;20361;-82
2023/04/07 11:50:11;;;;;;;10.18;9.88;;;15.40;99.90;;;;;;5090985;28;20226;-82
2023/04/07 11:52:42;;;;;;;10.32;10.02;;;15.80;99.90;;;;;;5090642;28;20221;-82
2023/04/07 11:55:22;;;;;;;10.18;9.88;;;16.10;99.90;;;;;;5091579;28;20241;-82
2023/04/07 11:58:02;;;;;;;10.45;10.15;;;16.30;99.90;;;;;;5094606;28;21105;-82
2023/04/07 12:00:30;;;;;;;10.48;10.18;;;16.10;99.90;;;;;;5091906;28;20225;-82
2023/04/07 12:03:10;;;;;;;10.25;9.95;;;16.10;99.90;;;;;;5089616;28;20238;-82
2023/04/07 12:05:45;;;;;;;10.52;10.23;;;16.20;99.90;;;;;;5091529;28;20290;-82
2023/04/07 12:08:14;;;;;;;10.75;10.45;;;16.30;99.90;;;;;;5090364;28;20239;-82
2023/04/07 12:10:43;;;;;;;10.68;10.38;;;16.50;99.90;;;;;;5091848;28;20284;-82
2023/04/07 12:13:13;;;;;;;10.50;10.20;;;16.90;99.90;;;;;;5091184;28;20234;-82
2023/04/07 12:15:43;;;;;;;10.73;10.43;;;17.30;99.90;;;;;;5089876;28;20270;-82
2023/04/07 12:18:21;;;;;;;10.82;10.52;;;17.50;99.90;;;;;;5088703;28;20231;-82
2023/04/07 12:21:00;;;;;;;10.48;10.18;;;17.50;99.90;;;;;;5087446;28;20229;-83
2023/04/07 12:23:28;;;;;;;10.52;10.23;;;17.60;99.90;;;;;;5086528;28;20230;-83
2023/04/07 12:25:57;;;;;;;10.35;10.05;;;17.50;99.90;;;;;;5087519;28;20237;-83
2023/04/07 12:28:27;;;;;;;10.50;10.20;;;17.30;99.90;;;;;;5086725;28;20242;-83
2023/04/07 12:30:56;;;;;;;10.57;10.27;;;17.10;99.90;;;;;;5087422;28;20214;-83
2023/04/07 12:33:26;;;;;;;10.38;10.07;;;17.10;99.90;;;;;;5086862;28;20226;-83
2023/04/07 12:35:58;;;;;;;10.43;10.13;;;16.90;99.90;;;;;;5086365;28;20268;-83
2023/04/07 12:38:26;;;;;;;10.10;9.80;;;16.80;99.90;;;;;;5086241;28;20270;-82
2023/04/07 12:40:53;;;;;;;10.23;9.93;;;16.70;99.90;;;;;;5087343;28;20226;-83
2023/04/07 12:43:24;;;;;;;10.40;10.10;;;16.60;99.90;;;;;;5086471;28;20237;-83
2023/04/07 12:45:53;;;;;;;10.50;10.20;;;16.40;99.90;;;;;;5085325;28;20245;-83
2023/04/07 12:48:23;;;;;;;10.45;10.15;;;16.40;99.90;;;;;;5085645;28;20789;-83
2023/04/07 12:50:53;;;;;;;10.30;10.00;;;16.10;99.90;;;;;;5085610;28;20225;-83
2023/04/07 12:53:26;;;;;;;10.13;9.82;;;16.20;99.90;;;;;;5087531;28;20238;-83
2023/04/07 12:55:53;;;;;;;10.38;10.07;;;16.10;99.90;;;;;;5085699;28;20249;-83
2023/04/07 12:58:21;;;;;;;10.15;9.85;;;16.40;99.90;;;;;;5092996;28;20294;-82
2023/04/07 13:00:50;;;;;;;9.85;9.55;;;16.80;99.90;;;;;;5096872;28;20341;-83
2023/04/07 13:03:20;;;;;;;9.85;9.55;;;17.40;99.90;;;;;;5091068;28;20241;-83
2023/04/07 13:05:50;;;;;;;10.13;9.82;;;17.60;99.90;;;;;;5089229;28;20225;-83
2023/04/07 13:08:19;;;;;;;10.35;10.05;;;17.60;99.90;;;;;;5087978;28;20256;-83
2023/04/07 13:10:50;;;;;;;10.02;9.73;;;17.90;99.90;;;;;;5086748;28;20231;-82
2023/04/07 13:13:18;;;;;;;10.20;9.90;;;17.90;99.90;;;;;;5087441;28;20333;-84
2023/04/07 13:15:47;;;;;;;10.27;9.98;;;18.10;99.90;;;;;;5087879;28;20257;-83
2023/04/07 13:18:18;;;;;;;10.25;9.95;;;18.00;99.90;;;;;;5086456;28;20429;-83
2023/04/07 13:20:47;;;;;;;10.10;9.80;;;17.80;99.90;;;;;;5085564;28;20232;-82
2023/04/07 13:23:15;;;;;;;10.32;10.02;;;17.70;99.90;;;;;;5086408;28;20284;-83
2023/04/07 13:25:44;;;;;;;10.10;9.80;;;17.40;99.90;;;;;;5084581;28;20360;-83
2023/04/07 13:28:17;;;;;;;10.10;9.80;;;17.70;99.90;;;;;;5083995;28;21089;-83
2023/04/07 13:30:44;;;;;;;10.00;9.70;;;17.10;99.90;;;;;;5084822;28;20226;-84
2023/04/07 13:33:13;;;;;;;9.90;9.60;;;17.20;99.90;;;;;;5084807;28;20614;-84
2023/04/07 13:35:44;;;;;;;10.20;9.90;;;17.40;99.90;;;;;;5084367;28;20254;-82
2023/04/07 13:38:12;;;;;;;10.40;10.10;;;17.70;99.90;;;;;;5084634;28;20242;-83
2023/04/07 13:40:43;;;;;;;9.88;9.57;;;17.70;99.90;;;;;;5084375;28;20233;-83
2023/04/07 13:43:12;;;;;;;9.80;9.50;;;17.40;99.90;;;;;;5088127;28;20222;-82
2023/04/07 13:45:40;;;;;;;9.90;9.60;;;17.30;99.90;;;;;;5086902;28;20325;-83
2023/04/07 13:48:09;;;;;;;9.95;9.65;;;17.10;99.90;;;;;;5082837;28;20234;-83
2023/04/07 13:50:39;;;;;;;9.90;9.60;;;16.60;99.90;;;;;;5082783;28;20689;-83
2023/04/07 13:53:08;;;;;;;9.98;9.68;;;16.20;99.90;;;;;;5084032;28;20237;-82
2023/04/07 13:55:42;;;;;;;9.90;9.60;;;16.10;99.90;;;;;;5082848;28;20333;-83
2023/04/07 13:58:25;;;;;;;10.00;9.70;;;16.30;99.90;;;;;;5086483;28;20286;-82
2023/04/07 14:00:58;;;;;;;9.90;9.60;;;16.70;99.90;;;;;;5086227;28;21042;-83
2023/04/07 14:03:26;;;;;;;10.20;9.90;;;17.20;99.90;;;;;;5086393;28;20250;-82
2023/04/07 14:05:59;;;;;;;9.85;9.55;;;16.90;99.90;;;;;;5086173;28;20237;-83
2023/04/07 14:08:27;;;;;;;9.90;9.60;;;16.70;99.90;;;;;;5086037;28;20226;-83
2023/04/07 14:10:54;;;;;;;10.05;9.75;;;16.10;99.90;;;;;;5085793;28;20218;-83
2023/04/07 14:13:26;;;;;;;10.25;9.95;;;15.60;99.90;;;;;;5084522;28;20234;-83
2023/04/07 14:15:53;;;;;;;10.35;10.05;;;15.30;99.90;;;;;;5084491;28;20340;-82
2023/04/07 14:18:22;;;;;;;10.02;9.73;;;15.30;99.90;;;;;;5083755;28;20234;-83
2023/04/07 14:20:51;;;;;;;10.27;9.98;;;15.30;99.90;;;;;;5084345;28;20226;-83
2023/04/07 14:23:22;;;;;;;10.43;10.13;;;15.50;99.90;;;;;;5085100;28;20226;-83
2023/04/07 14:25:50;;;;;;;10.35;10.05;;;15.60;99.90;;;;;;5086773;28;20230;-82
2023/04/07 14:28:20;;;;;;;10.30;10.00;;;15.70;99.90;;;;;;5084144;28;20280;-83
2023/04/07 14:30:51;;;;;;;10.45;10.15;;;15.80;99.90;;;;;;5084608;28;20237;-84
2023/04/07 14:33:19;;;;;;;10.60;10.30;;;16.50;99.90;;;;;;5083629;28;20254;-83
2023/04/07 14:35:48;;;;;;;10.63;10.32;;;17.10;99.90;;;;;;5085402;28;20254;-83
2023/04/07 14:38:17;;;;;;;10.73;10.43;;;17.50;99.90;;;;;;5083138;28;20260;-83
2023/04/07 14:40:48;;;;;;;10.68;10.38;;;17.40;99.90;;;;;;5082191;28;20305;-83
2023/04/07 14:43:16;;;;;;;10.55;10.25;;;17.60;99.90;;;;;;5083043;28;20297;-83
2023/04/07 14:45:46;;;;;;;10.52;10.23;;;17.90;99.90;;;;;;5082716;28;20289;-83
2023/04/07 14:51:02;;;;;;;10.48;10.18;;;18.00;99.90;;;;;;5080983;28;20233;-83
2023/04/07 14:53:32;;;;;;;10.52;10.23;;;17.60;99.90;;;;;;5082156;28;20333;-83
2023/04/07 14:56:01;;;;;;;9.95;9.65;;;17.30;99.90;;;;;;5086387;28;20284;-83
2023/04/07 14:58:31;;;;;;;10.52;10.23;;;17.00;99.90;;;;;;5087051;28;20265;-83
2023/04/07 15:01:00;;;;;;;10.20;9.90;;;16.40;99.90;;;;;;5085834;28;20280;-83
2023/04/07 15:03:35;;;;;;;10.20;9.90;;;16.20;99.90;;;;;;5084860;28;20250;-83
2023/04/07 15:06:08;;;;;;;10.35;10.05;;;16.30;99.90;;;;;;5083754;28;20248;-83
2023/04/07 15:08:38;;;;;;;10.15;9.85;;;16.50;99.90;;;;;;5084861;28;20237;-83
2023/04/07 15:11:08;;;;;;;10.15;9.85;;;16.80;99.90;;;;;;5087086;28;20254;-83
2023/04/07 15:13:36;;;;;;;10.38;10.07;;;16.50;99.90;;;;;;5086659;28;20237;-83
2023/04/07 15:16:08;;;;;;;10.20;9.90;;;16.10;99.90;;;;;;5094424;28;20241;-83
2023/04/07 15:18:44;;;;;;;10.10;9.80;;;15.70;99.90;;;;;;5092891;28;20258;-83
2023/04/07 15:21:14;;;;;;;9.82;9.52;;;15.50;99.90;;;;;;5087402;28;20281;-82
2023/04/07 15:23:43;;;;;;;10.50;10.20;;;15.50;99.90;;;;;;5085134;28;20238;-83
2023/04/07 15:26:12;;;;;;;10.30;10.00;;;15.60;99.90;;;;;;5084963;28;20226;-82
2023/04/07 15:28:41;;;;;;;10.30;10.00;;;16.00;99.90;;;;;;5085037;28;20222;-83
2023/04/07 15:31:11;;;;;;;10.20;9.90;;;16.30;99.90;;;;;;5090913;28;20270;-83
2023/04/07 15:33:43;;;;;;;10.18;9.88;;;16.70;99.90;;;;;;5086172;28;20235;-83
2023/04/07 15:36:11;;;;;;;10.20;9.90;;;17.20;99.90;;;;;;5084271;28;20233;-83
2023/04/07 15:38:40;;;;;;;10.05;9.75;;;17.20;99.90;;;;;;5084181;28;20222;-83
2023/04/07 15:41:09;;;;;;;10.02;9.73;;;17.30;99.90;;;;;;5085177;28;21057;-85
2023/04/07 15:43:38;;;;;;;10.40;10.10;;;16.80;99.90;;;;;;5086584;28;20234;-83
2023/04/07 15:46:07;;;;;;;10.20;9.90;;;16.20;99.90;;;;;;5090131;28;20237;-83
2023/04/07 15:48:38;;;;;;;10.18;9.88;;;15.80;99.90;;;;;;5091784;28;20253;-83
2023/04/07 15:51:09;;;;;;;10.25;9.95;;;15.20;99.90;;;;;;5091597;28;20265;-83
2023/04/07 15:53:37;;;;;;;10.45;10.15;;;14.90;99.90;;;;;;5090861;28;20222;-83
2023/04/07 15:56:07;;;;;;;10.60;10.30;;;15.00;99.90;;;;;;5089651;28;20369;-83
2023/04/07 15:58:37;;;;;;;10.25;9.95;;;15.00;99.90;;;;;;5089312;28;20230;-83
2023/04/07 16:01:06;;;;;;;10.02;9.73;;;15.20;99.90;;;;;;5089337;28;20334;-83
2023/04/07 16:03:35;;;;;;;10.43;10.13;;;15.40;99.90;;;;;;5088184;28;20238;-83
2023/04/07 16:06:05;;;;;;;10.50;10.20;;;15.70;99.90;;;;;;5087324;28;20252;-83
2023/04/07 16:08:34;;;;;;;10.40;10.10;;;16.10;99.90;;;;;;5088888;28;20252;-83
2023/04/07 16:11:04;;;;;;;10.50;10.20;;;16.40;99.90;;;;;;5089069;28;20230;-83
2023/04/07 16:13:33;;;;;;;10.40;10.10;;;16.60;99.90;;;;;;5088952;28;20241;-83
2023/04/07 16:16:02;;;;;;;10.55;10.25;;;16.70;99.90;;;;;;5088722;28;20287;-84
2023/04/07 16:18:33;;;;;;;10.30;10.00;;;17.20;99.90;;;;;;5088962;28;20222;-83
2023/04/07 16:21:01;;;;;;;10.40;10.10;;;17.40;99.90;;;;;;5088557;28;20280;-83
2023/04/07 16:23:31;;;;;;;10.40;10.10;;;17.30;99.90;;;;;;5088716;28;20241;-83
2023/04/07 16:26:03;;;;;;;10.20;9.90;;;17.50;99.90;;;;;;5088457;28;20317;-83
2023/04/07 16:28:30;;;;;;;10.20;9.90;;;17.70;99.90;;;;;;5088126;28;20223;-83
2023/04/07 16:31:01;;;;;;;10.20;9.90;;;17.60;99.90;;;;;;5089116;28;20245;-85
2023/04/07 16:33:28;;;;;;;10.23;9.93;;;17.80;99.90;;;;;;5089225;28;20234;-83
2023/04/07 16:35:59;;;;;;;10.25;9.95;;;17.60;99.90;;;;;;5088042;28;20245;-83
2023/04/07 16:38:28;;;;;;;10.18;9.88;;;17.20;99.90;;;;;;5087115;28;20282;-83
2023/04/07 16:40:57;;;;;;;10.00;9.70;;;16.70;99.90;;;;;;5088409;28;20218;-83
2023/04/07 16:43:29;;;;;;;10.20;9.90;;;16.80;99.90;;;;;;5087879;28;20226;-84
2023/04/07 16:45:58;;;;;;;10.07;9.77;;;16.50;99.90;;;;;;5088644;28;20228;-84
2023/04/07 16:49:32;;;;;;;10.00;9.70;;;16.00;99.90;;;;;;5137750;22;20234;-85
2023/04/07 18:32:23;;;;;;;9.90;9.60;;;11.40;99.90;;;;;;4969086;28;20285;-86
2023/04/07 18:39:52;;;;;;;9.97;9.67;;;11.20;99.90;;;;;;4993151;28;20244;-86
2023/04/07 19:53:41;;;;;;;10.23;9.93;;;9.00;99.90;;;;;;5221421;27;20388;-85
2023/04/07 20:00:55;;;;;;;10.10;9.80;;;8.80;99.90;;;;;;5073810;28;20744;-85
2023/04/07 21:35:40;;;;;;;10.87;10.57;;;7.80;99.90;;;;;;5199834;27;20243;-85
2023/04/07 22:49:31;;;;;;;10.87;10.57;;;6.70;99.90;;;;;;6265323;22;20209;-83
2023/04/07 22:52:00;;;;;;;10.90;10.60;;;6.70;99.90;;;;;;6271319;22;20198;-81
2023/04/07 22:54:38;;;;;;;11.03;10.73;;;6.70;99.90;;;;;;6272184;22;20221;-82
2023/04/07 22:57:08;;;;;;;10.80;10.50;;;6.70;99.90;;;;;;6271533;22;20234;-83
2023/04/07 22:59:38;;;;;;;11.17;10.87;;;6.70;99.90;;;;;;6269255;22;20276;-83
2023/04/07 23:02:06;;;;;;;11.03;10.73;;;6.70;99.90;;;;;;6267841;22;20217;-83
2023/04/07 23:04:36;;;;;;;10.80;10.50;;;6.70;99.90;;;;;;6269928;22;20195;-83
2023/04/07 23:07:06;;;;;;;10.90;10.60;;;6.70;99.90;;;;;;6273097;22;20195;-83
2023/04/07 23:12:22;;;;;;;11.07;10.77;;;6.70;99.90;;;;;;6271279;22;20198;-82
2023/04/07 23:14:52;;;;;;;10.87;10.57;;;6.70;99.90;;;;;;6278343;22;20202;-83
2023/04/07 23:17:21;;;;;;;11.07;10.77;;;6.60;99.90;;;;;;6277672;22;20187;-83
2023/04/07 23:19:50;;;;;;;10.80;10.50;;;6.60;99.90;;;;;;6278272;22;20190;-83
2023/04/07 23:22:20;;;;;;;10.73;10.43;;;6.70;99.90;;;;;;6278808;22;20254;-83
2023/04/07 23:24:58;;;;;;;10.80;10.50;;;6.70;99.90;;;;;;6279138;22;20245;-83
2023/04/07 23:27:28;;;;;;;10.90;10.60;;;6.60;99.90;;;;;;6278465;22;20217;-83
2023/04/07 23:29:57;;;;;;;10.80;10.50;;;6.60;99.90;;;;;;6279056;22;20254;-83
2023/04/07 23:32:26;;;;;;;10.90;10.60;;;6.60;99.90;;;;;;6279534;22;20197;-83
2023/04/07 23:34:55;;;;;;;10.90;10.60;;;6.60;99.90;;;;;;6280035;22;20190;-83
2023/04/07 23:37:25;;;;;;;10.73;10.43;;;6.60;99.90;;;;;;6279288;22;20190;-82
2023/04/07 23:42:41;;;;;;;10.80;10.50;;;6.60;99.90;;;;;;6274946;22;20198;-83
2023/04/07 23:45:11;;;;;;;10.80;10.50;;;6.60;99.90;;;;;;6273260;22;20213;-83
2023/04/07 23:47:39;;;;;;;10.80;10.50;;;6.60;99.90;;;;;;6271955;22;20274;-83
2023/04/07 23:50:11;;;;;;;10.70;10.40;;;6.70;99.90;;;;;;6271267;22;20201;-83
2023/04/07 23:52:40;;;;;;;10.97;10.67;;;6.70;99.90;;;;;;6271058;22;20187;-83
2023/04/07 23:55:13;;;;;;;10.83;10.53;;;6.80;99.90;;;;;;6271094;22;20250;-82
2023/04/07 23:57:41;;;;;;;10.70;10.40;;;6.90;99.90;;;;;;6270123;22;20205;-83
